Time;durP1;ratioP1;P1;durP2;ratioP2;P2;SDS_P1;SDS_P2;PMS_P1;PMS_P2;Temp;Humidity;BMP_temperature;BMP_pressure;BME280_temperature;BME280_humidity;BME280_pressure;Samples;Min_cycle;Max_cycle;Signal;HPM_P1;HPM_P2
2023/12/27 00:00:15;;;;;;;20.42;12.02;;;;;;;;;;2072612;28;20063;-80
2023/12/27 00:01:37;;;;;;;18.42;10.48;;;;;;;;;;2078985;28;20091;-80
2023/12/27 00:02:58;;;;;;;15.40;10.55;;;;;;;;;;2069208;28;20079;-81
2023/12/27 00:04:19;;;;;;;27.10;12.82;;;;;;;;;;2072089;28;20057;-80
2023/12/27 00:05:40;;;;;;;21.95;11.57;;;;;;;;;;2071908;28;20042;-81
2023/12/27 00:07:01;;;;;;;19.63;11.80;;;;;;;;;;2073502;28;20451;-81
2023/12/27 00:08:22;;;;;;;26.10;12.43;;;;;;;;;;2078403;28;20021;-80
2023/12/27 00:09:43;;;;;;;27.63;13.43;;;;;;;;;;2075873;28;20037;-81
2023/12/27 00:11:04;;;;;;;21.35;12.55;;;;;;;;;;2077901;28;20033;-80
2023/12/27 00:12:25;;;;;;;17.23;11.80;;;;;;;;;;2068012;28;20034;-81
2023/12/27 00:13:46;;;;;;;20.60;12.40;;;;;;;;;;2071279;28;20481;-81
2023/12/27 00:15:07;;;;;;;17.80;11.52;;;;;;;;;;2076364;28;20124;-79
2023/12/27 00:16:29;;;;;;;16.02;11.15;;;;;;;;;;2070206;28;20104;-80
2023/12/27 00:17:50;;;;;;;18.88;11.73;;;;;;;;;;2075378;28;20399;-80
2023/12/27 00:19:11;;;;;;;24.98;12.02;;;;;;;;;;2070270;28;20026;-81
2023/12/27 00:20:31;;;;;;;24.48;12.32;;;;;;;;;;2074108;28;20464;-80
2023/12/27 00:21:52;;;;;;;19.17;12.15;;;;;;;;;;2080257;28;20113;-81
2023/12/27 00:23:14;;;;;;;21.88;12.10;;;;;;;;;;2078259;28;20025;-80
2023/12/27 00:24:34;;;;;;;19.00;11.65;;;;;;;;;;2073865;28;20156;-80
2023/12/27 00:25:56;;;;;;;18.73;12.00;;;;;;;;;;2077154;28;20343;-81
2023/12/27 00:27:17;;;;;;;21.37;12.00;;;;;;;;;;2071100;28;20424;-80
2023/12/27 00:28:37;;;;;;;23.15;12.77;;;;;;;;;;2074210;28;20439;-80
2023/12/27 00:29:58;;;;;;;22.75;13.05;;;;;;;;;;2069825;28;20034;-79
2023/12/27 00:31:19;;;;;;;23.05;12.18;;;;;;;;;;2075877;28;20103;-84
2023/12/27 00:32:40;;;;;;;27.13;13.00;;;;;;;;;;2078189;28;20017;-83
2023/12/27 00:34:01;;;;;;;17.35;11.40;;;;;;;;;;2077612;28;20041;-84
2023/12/27 00:35:22;;;;;;;22.17;13.73;;;;;;;;;;2070861;28;21030;-83
2023/12/27 00:36:43;;;;;;;29.05;13.45;;;;;;;;;;2068048;28;20030;-84
2023/12/27 00:38:04;;;;;;;20.17;13.50;;;;;;;;;;2076540;28;20026;-84
2023/12/27 00:39:26;;;;;;;20.70;12.13;;;;;;;;;;2078931;28;20037;-83
2023/12/27 00:40:46;;;;;;;28.20;13.63;;;;;;;;;;2070213;28;20030;-82
2023/12/27 00:42:08;;;;;;;22.08;12.88;;;;;;;;;;2073197;28;20076;-84
2023/12/27 00:43:29;;;;;;;25.15;13.23;;;;;;;;;;2070124;28;20450;-84
2023/12/27 00:44:50;;;;;;;24.20;13.82;;;;;;;;;;2070611;28;20053;-84
2023/12/27 00:46:11;;;;;;;21.98;12.40;;;;;;;;;;2074614;28;20041;-84
2023/12/27 00:47:32;;;;;;;22.45;13.30;;;;;;;;;;2070225;28;20030;-83
2023/12/27 00:48:53;;;;;;;17.58;12.20;;;;;;;;;;2076766;28;20424;-84
2023/12/27 00:50:14;;;;;;;22.05;12.55;;;;;;;;;;2078770;28;20099;-79
2023/12/27 00:51:35;;;;;;;19.95;11.70;;;;;;;;;;2077365;28;20558;-84
2023/12/27 00:52:56;;;;;;;18.25;12.25;;;;;;;;;;2071572;28;20025;-84
2023/12/27 00:54:18;;;;;;;22.75;12.18;;;;;;;;;;2073804;28;20037;-84
2023/12/27 00:55:39;;;;;;;25.42;12.68;;;;;;;;;;2078477;28;20046;-84
2023/12/27 00:57:00;;;;;;;20.38;12.70;;;;;;;;;;2077048;28;20099;-83
2023/12/27 00:58:21;;;;;;;21.95;12.75;;;;;;;;;;2071015;28;20033;-83
2023/12/27 00:59:42;;;;;;;24.90;12.57;;;;;;;;;;2077003;28;20095;-83
2023/12/27 01:01:03;;;;;;;20.30;13.13;;;;;;;;;;2077300;28;20088;-84
2023/12/27 01:02:24;;;;;;;27.63;14.88;;;;;;;;;;2079879;28;20033;-83
2023/12/27 01:03:45;;;;;;;28.52;13.93;;;;;;;;;;2079170;28;20037;-85
2023/12/27 01:05:06;;;;;;;22.60;13.70;;;;;;;;;;2078159;28;20033;-84
2023/12/27 01:06:27;;;;;;;18.88;12.70;;;;;;;;;;2081476;28;20026;-84
2023/12/27 01:07:47;;;;;;;24.40;13.43;;;;;;;;;;2079587;28;20022;-84
2023/12/27 01:09:08;;;;;;;25.83;13.55;;;;;;;;;;2078427;28;20397;-83
2023/12/27 01:10:29;;;;;;;21.05;12.73;;;;;;;;;;2079254;28;20033;-83
2023/12/27 01:11:50;;;;;;;26.17;14.30;;;;;;;;;;2068495;28;20026;-84
2023/12/27 01:13:11;;;;;;;26.48;14.52;;;;;;;;;;2077966;28;20030;-84
2023/12/27 01:14:32;;;;;;;18.70;13.82;;;;;;;;;;2070261;28;20037;-84
2023/12/27 01:15:53;;;;;;;26.23;13.75;;;;;;;;;;2076860;28;20045;-84
2023/12/27 01:17:14;;;;;;;26.55;14.05;;;;;;;;;;2073533;28;20490;-84
2023/12/27 01:18:34;;;;;;;25.27;14.23;;;;;;;;;;2074399;28;20054;-84
2023/12/27 01:19:56;;;;;;;25.60;14.10;;;;;;;;;;2086645;28;20029;-84
2023/12/27 01:21:16;;;;;;;26.27;14.25;;;;;;;;;;2083008;28;20021;-84
2023/12/27 01:22:37;;;;;;;23.80;13.95;;;;;;;;;;2077743;28;20546;-83
2023/12/27 01:23:58;;;;;;;24.08;14.50;;;;;;;;;;2082122;28;20040;-83
2023/12/27 01:25:19;;;;;;;25.67;13.45;;;;;;;;;;2082068;28;20555;-84
2023/12/27 01:26:40;;;;;;;23.88;12.85;;;;;;;;;;2077705;28;20060;-83
2023/12/27 01:28:02;;;;;;;26.55;13.38;;;;;;;;;;2073948;28;20033;-84
2023/12/27 01:29:23;;;;;;;31.65;14.27;;;;;;;;;;2071321;28;20045;-84
2023/12/27 01:30:44;;;;;;;21.55;13.63;;;;;;;;;;2070575;28;20030;-85
2023/12/27 01:32:05;;;;;;;23.08;12.82;;;;;;;;;;2079281;28;20056;-84
2023/12/27 01:33:26;;;;;;;19.23;12.90;;;;;;;;;;2080084;28;20045;-84
2023/12/27 01:34:47;;;;;;;25.23;13.68;;;;;;;;;;2081804;28;20046;-83
2023/12/27 01:36:08;;;;;;;23.33;13.27;;;;;;;;;;2073280;28;20126;-84
2023/12/27 01:37:29;;;;;;;27.02;14.10;;;;;;;;;;2079630;28;20025;-84
2023/12/27 01:38:50;;;;;;;21.08;13.02;;;;;;;;;;2075887;28;20081;-84
2023/12/27 01:40:12;;;;;;;24.85;13.85;;;;;;;;;;2077438;28;20033;-83
2023/12/27 01:41:33;;;;;;;25.27;13.82;;;;;;;;;;2078120;28;20038;-84
2023/12/27 01:42:53;;;;;;;22.05;13.30;;;;;;;;;;2071873;28;20509;-83
2023/12/27 01:44:14;;;;;;;25.35;14.55;;;;;;;;;;2075274;28;20053;-84
2023/12/27 01:45:35;;;;;;;24.70;14.13;;;;;;;;;;2078512;28;20045;-84
2023/12/27 01:46:56;;;;;;;20.80;14.32;;;;;;;;;;2073573;28;20453;-83
2023/12/27 01:48:21;;;;;;;23.50;13.75;;;;;;;;;;2068241;28;21346;-84
2023/12/27 01:49:42;;;;;;;25.80;14.50;;;;;;;;;;2077108;28;20037;-84
2023/12/27 01:51:03;;;;;;;26.65;13.73;;;;;;;;;;2080149;28;20064;-84
2023/12/27 01:52:24;;;;;;;30.05;15.50;;;;;;;;;;2079575;28;20033;-83
2023/12/27 01:53:45;;;;;;;27.48;13.77;;;;;;;;;;2068905;28;20446;-83
2023/12/27 01:55:09;;;;;;;20.80;13.90;;;;;;;;;;2077349;28;20953;-84
2023/12/27 01:56:30;;;;;;;27.00;13.77;;;;;;;;;;2071058;28;20096;-83
2023/12/27 01:57:51;;;;;;;27.40;14.48;;;;;;;;;;2067889;28;20026;-81
2023/12/27 01:59:13;;;;;;;26.48;14.27;;;;;;;;;;2076887;28;20495;-84
2023/12/27 02:00:40;;;;;;;27.02;14.07;;;;;;;;;;2078205;28;20033;-83
2023/12/27 02:02:01;;;;;;;26.25;15.23;;;;;;;;;;2077205;28;20045;-84
2023/12/27 02:03:23;;;;;;;26.85;13.43;;;;;;;;;;2075752;28;20046;-83
2023/12/27 02:04:44;;;;;;;26.10;14.32;;;;;;;;;;2068138;28;20050;-84
2023/12/27 02:06:05;;;;;;;25.88;14.70;;;;;;;;;;2074423;28;20071;-84
2023/12/27 02:07:25;;;;;;;25.02;14.43;;;;;;;;;;2078664;28;20029;-84
2023/12/27 02:08:46;;;;;;;28.92;14.18;;;;;;;;;;2072000;28;20033;-84
2023/12/27 02:10:07;;;;;;;24.33;13.73;;;;;;;;;;2069733;28;20030;-84
2023/12/27 02:11:28;;;;;;;27.13;14.52;;;;;;;;;;2070839;28;20085;-84
2023/12/27 02:12:49;;;;;;;23.80;13.27;;;;;;;;;;2067294;28;20026;-85
2023/12/27 02:14:10;;;;;;;30.83;15.20;;;;;;;;;;2076332;28;20037;-84
2023/12/27 02:15:31;;;;;;;29.98;15.43;;;;;;;;;;2079349;28;20123;-84
2023/12/27 02:16:52;;;;;;;21.08;13.77;;;;;;;;;;2079436;28;20037;-84
2023/12/27 02:18:14;;;;;;;29.70;14.20;;;;;;;;;;2070661;28;20057;-84
2023/12/27 02:19:35;;;;;;;27.70;14.18;;;;;;;;;;2076960;28;20018;-84
2023/12/27 02:20:56;;;;;;;29.30;13.90;;;;;;;;;;2073145;28;20022;-83
2023/12/27 02:22:20;;;;;;;25.00;13.98;;;;;;;;;;2075777;28;20370;-84
2023/12/27 02:23:42;;;;;;;24.80;13.65;;;;;;;;;;2069661;28;20585;-84
2023/12/27 02:25:03;;;;;;;23.60;15.02;;;;;;;;;;2067863;28;20056;-84
2023/12/27 02:26:24;;;;;;;26.38;14.50;;;;;;;;;;2067820;28;20034;-83
2023/12/27 02:27:47;;;;;;;24.63;13.80;;;;;;;;;;2075046;28;20025;-83
2023/12/27 02:29:08;;;;;;;26.10;13.68;;;;;;;;;;2070888;28;20100;-83
2023/12/27 02:30:31;;;;;;;24.65;13.88;;;;;;;;;;2069015;28;20485;-84
2023/12/27 02:31:52;;;;;;;27.52;15.43;;;;;;;;;;2073454;28;20033;-81
2023/12/27 02:33:13;;;;;;;27.87;14.67;;;;;;;;;;2078114;28;20108;-82
2023/12/27 02:34:34;;;;;;;26.50;13.95;;;;;;;;;;2077613;28;20910;-83
2023/12/27 02:35:55;;;;;;;30.60;14.95;;;;;;;;;;2071519;28;20037;-83
2023/12/27 02:37:16;;;;;;;29.58;15.02;;;;;;;;;;2077208;28;20029;-83
2023/12/27 02:38:37;;;;;;;24.33;15.18;;;;;;;;;;2079756;28;20093;-83
2023/12/27 02:39:59;;;;;;;26.98;14.50;;;;;;;;;;2078883;28;20451;-83
2023/12/27 02:41:20;;;;;;;25.63;13.30;;;;;;;;;;2079430;28;20029;-83
2023/12/27 02:42:40;;;;;;;31.65;15.15;;;;;;;;;;2079828;28;20505;-83
2023/12/27 02:44:01;;;;;;;34.50;14.90;;;;;;;;;;2069760;28;20579;-83
2023/12/27 02:45:25;;;;;;;31.58;14.13;;;;;;;;;;2074489;28;20103;-83
2023/12/27 02:46:46;;;;;;;30.75;15.27;;;;;;;;;;2079119;28;20042;-83
2023/12/27 02:48:07;;;;;;;29.05;14.60;;;;;;;;;;2070337;28;20446;-83
2023/12/27 02:49:28;;;;;;;27.75;14.73;;;;;;;;;;2073528;28;21490;-83
2023/12/27 02:50:49;;;;;;;22.92;13.82;;;;;;;;;;2070428;28;20059;-83
2023/12/27 02:52:10;;;;;;;26.50;14.27;;;;;;;;;;2074200;28;20034;-83
2023/12/27 02:53:31;;;;;;;24.23;14.02;;;;;;;;;;2078089;28;20065;-82
2023/12/27 02:54:51;;;;;;;35.33;14.98;;;;;;;;;;2069506;28;20088;-82
2023/12/27 02:56:13;;;;;;;21.80;15.07;;;;;;;;;;2074601;28;20045;-83
2023/12/27 02:57:34;;;;;;;28.00;16.00;;;;;;;;;;2069722;28;20037;-82
2023/12/27 02:58:55;;;;;;;32.08;14.90;;;;;;;;;;2072831;28;20512;-83
2023/12/27 03:00:16;;;;;;;29.55;14.30;;;;;;;;;;2070848;28;20046;-82
2023/12/27 03:01:37;;;;;;;23.38;13.63;;;;;;;;;;2076065;28;20092;-83
2023/12/27 03:02:57;;;;;;;30.70;14.95;;;;;;;;;;2072919;28;20040;-83
2023/12/27 03:04:18;;;;;;;29.25;16.08;;;;;;;;;;2074437;28;20033;-83
2023/12/27 03:05:40;;;;;;;31.30;15.32;;;;;;;;;;2078157;28;20037;-82
2023/12/27 03:07:00;;;;;;;28.60;14.40;;;;;;;;;;2071635;28;20018;-83
2023/12/27 03:08:21;;;;;;;32.20;14.45;;;;;;;;;;2066304;28;20624;-82
2023/12/27 03:09:42;;;;;;;28.15;14.43;;;;;;;;;;2069229;28;20088;-83
2023/12/27 03:11:06;;;;;;;24.83;14.40;;;;;;;;;;2068829;28;20038;-83
2023/12/27 03:12:27;;;;;;;30.15;14.50;;;;;;;;;;2076386;28;20465;-84
2023/12/27 03:13:48;;;;;;;31.02;16.20;;;;;;;;;;2075240;28;20030;-83
2023/12/27 03:15:09;;;;;;;28.00;14.38;;;;;;;;;;2069159;28;20050;-81
2023/12/27 03:16:30;;;;;;;25.85;14.45;;;;;;;;;;2077490;28;20128;-83
2023/12/27 03:17:51;;;;;;;25.60;14.45;;;;;;;;;;2081224;28;20420;-83
2023/12/27 03:19:12;;;;;;;25.80;13.65;;;;;;;;;;2072996;28;20047;-83
2023/12/27 03:20:33;;;;;;;30.27;15.77;;;;;;;;;;2069839;28;20026;-82
2023/12/27 03:21:54;;;;;;;27.20;14.80;;;;;;;;;;2068364;28;20033;-82
2023/12/27 03:23:14;;;;;;;29.38;14.50;;;;;;;;;;2065068;28;20414;-82
2023/12/27 03:24:35;;;;;;;34.55;16.20;;;;;;;;;;2068903;28;20060;-82
2023/12/27 03:25:56;;;;;;;31.17;14.35;;;;;;;;;;2078686;28;20022;-83
2023/12/27 03:27:17;;;;;;;24.90;15.60;;;;;;;;;;2071793;28;20022;-83
2023/12/27 03:28:38;;;;;;;30.17;15.75;;;;;;;;;;2073000;28;20116;-83
2023/12/27 03:29:59;;;;;;;28.15;15.68;;;;;;;;;;2075828;28;20021;-83
2023/12/27 03:31:20;;;;;;;36.35;14.50;;;;;;;;;;2082205;28;20030;-83
2023/12/27 03:32:41;;;;;;;32.90;15.68;;;;;;;;;;2088722;28;20515;-83
2023/12/27 03:34:01;;;;;;;32.13;15.85;;;;;;;;;;2080617;28;20030;-83
2023/12/27 03:35:22;;;;;;;27.42;15.93;;;;;;;;;;2076269;28;20040;-83
2023/12/27 03:36:43;;;;;;;27.88;16.15;;;;;;;;;;2072362;28;20092;-83
2023/12/27 03:38:05;;;;;;;33.85;16.30;;;;;;;;;;2069140;28;20034;-83
2023/12/27 03:39:25;;;;;;;39.38;15.68;;;;;;;;;;2069552;28;20033;-83
2023/12/27 03:40:46;;;;;;;25.27;15.63;;;;;;;;;;2067738;28;20060;-82
2023/12/27 03:42:07;;;;;;;35.50;17.00;;;;;;;;;;2072181;28;20037;-83
2023/12/27 03:43:28;;;;;;;32.15;15.65;;;;;;;;;;2078277;28;20033;-81
2023/12/27 03:44:52;;;;;;;38.78;16.38;;;;;;;;;;2069147;28;20403;-81
2023/12/27 03:46:13;;;;;;;33.35;15.10;;;;;;;;;;2076340;28;20112;-82
2023/12/27 03:47:34;;;;;;;32.97;15.82;;;;;;;;;;2077648;28;20508;-82
2023/12/27 03:48:55;;;;;;;38.10;16.55;;;;;;;;;;2078443;28;20053;-83
2023/12/27 03:50:16;;;;;;;27.67;15.98;;;;;;;;;;2079296;28;20032;-81
2023/12/27 03:51:37;;;;;;;28.98;15.30;;;;;;;;;;2079316;28;20061;-83
2023/12/27 03:52:58;;;;;;;28.08;15.15;;;;;;;;;;2072124;28;20029;-82
2023/12/27 03:54:18;;;;;;;27.98;14.52;;;;;;;;;;2073804;28;20030;-82
2023/12/27 03:55:42;;;;;;;29.52;15.07;;;;;;;;;;2072447;28;20034;-82
2023/12/27 03:57:03;;;;;;;32.83;15.85;;;;;;;;;;2069737;28;20030;-83
2023/12/27 03:58:23;;;;;;;29.13;14.90;;;;;;;;;;2078101;28;20041;-83
2023/12/27 03:59:44;;;;;;;24.95;14.50;;;;;;;;;;2072932;28;20394;-83
2023/12/27 04:01:05;;;;;;;28.50;15.43;;;;;;;;;;2069458;28;20041;-83
2023/12/27 04:02:26;;;;;;;31.58;14.68;;;;;;;;;;2081120;28;20037;-82
2023/12/27 04:03:48;;;;;;;29.73;15.88;;;;;;;;;;2079536;28;20497;-83
2023/12/27 04:05:09;;;;;;;29.23;14.23;;;;;;;;;;2080884;28;20049;-83
2023/12/27 04:06:29;;;;;;;24.15;13.63;;;;;;;;;;2080262;28;20405;-83
2023/12/27 04:07:50;;;;;;;29.77;15.05;;;;;;;;;;2073283;28;20034;-83
2023/12/27 04:09:12;;;;;;;28.27;14.43;;;;;;;;;;2069288;28;20022;-83
2023/12/27 04:10:32;;;;;;;38.13;14.75;;;;;;;;;;2073598;28;20040;-83
2023/12/27 04:11:53;;;;;;;30.33;15.90;;;;;;;;;;2075535;28;20030;-83
2023/12/27 04:13:14;;;;;;;25.60;15.30;;;;;;;;;;2066950;28;20431;-83
2023/12/27 04:14:35;;;;;;;33.47;15.50;;;;;;;;;;2074243;28;20087;-83
2023/12/27 04:15:56;;;;;;;21.52;14.18;;;;;;;;;;2076246;28;20029;-83
2023/12/27 04:17:17;;;;;;;29.02;16.27;;;;;;;;;;2068912;28;20084;-84
2023/12/27 04:18:38;;;;;;;33.55;16.50;;;;;;;;;;2067766;28;20040;-82
2023/12/27 04:19:59;;;;;;;34.17;15.85;;;;;;;;;;2076151;28;20327;-82
2023/12/27 04:21:20;;;;;;;31.10;15.73;;;;;;;;;;2079916;28;20091;-83
2023/12/27 04:22:41;;;;;;;28.60;15.98;;;;;;;;;;2080939;28;20045;-83
2023/12/27 04:24:02;;;;;;;32.92;16.63;;;;;;;;;;2078835;28;20026;-83
2023/12/27 04:25:23;;;;;;;30.55;16.50;;;;;;;;;;2069600;28;20056;-82
2023/12/27 04:26:43;;;;;;;32.00;17.13;;;;;;;;;;2073182;28;20489;-82
2023/12/27 04:28:04;;;;;;;32.00;15.80;;;;;;;;;;2078788;28;20135;-83
2023/12/27 04:29:25;;;;;;;30.23;16.35;;;;;;;;;;2079937;28;20448;-83
2023/12/27 04:30:46;;;;;;;28.02;15.30;;;;;;;;;;2077344;28;20060;-82
2023/12/27 04:32:07;;;;;;;27.92;15.10;;;;;;;;;;2071354;28;20061;-83
2023/12/27 04:33:28;;;;;;;28.67;16.98;;;;;;;;;;2075747;28;20424;-84
2023/12/27 04:34:49;;;;;;;33.97;14.95;;;;;;;;;;2079314;28;20159;-84
2023/12/27 04:36:10;;;;;;;27.58;15.27;;;;;;;;;;2080023;28;20091;-83
2023/12/27 04:37:31;;;;;;;31.67;16.38;;;;;;;;;;2078667;28;20042;-84
2023/12/27 04:38:52;;;;;;;24.35;15.25;;;;;;;;;;2069039;28;20077;-83
2023/12/27 04:40:13;;;;;;;29.77;14.52;;;;;;;;;;2076657;28;20026;-84
2023/12/27 04:41:34;;;;;;;28.08;15.50;;;;;;;;;;2072355;28;20034;-84
2023/12/27 04:42:55;;;;;;;28.08;15.73;;;;;;;;;;2076648;28;20029;-84
2023/12/27 04:44:16;;;;;;;37.17;15.63;;;;;;;;;;2078849;28;20042;-83
2023/12/27 04:45:38;;;;;;;32.25;15.90;;;;;;;;;;2070246;28;20076;-84
2023/12/27 04:46:58;;;;;;;25.42;15.02;;;;;;;;;;2077188;28;20048;-82
2023/12/27 04:48:19;;;;;;;26.33;14.57;;;;;;;;;;2072176;28;20026;-84
2023/12/27 04:49:40;;;;;;;27.98;14.50;;;;;;;;;;2073577;28;20034;-82
2023/12/27 04:51:01;;;;;;;36.67;15.32;;;;;;;;;;2072142;28;20398;-84
2023/12/27 04:52:22;;;;;;;34.72;15.65;;;;;;;;;;2076906;28;20029;-83
2023/12/27 04:53:43;;;;;;;34.40;15.52;;;;;;;;;;2072900;28;20516;-82
2023/12/27 04:55:04;;;;;;;40.15;16.55;;;;;;;;;;2072978;28;20072;-84
2023/12/27 04:56:25;;;;;;;26.55;15.38;;;;;;;;;;2079552;28;20042;-83
2023/12/27 04:57:46;;;;;;;31.50;14.45;;;;;;;;;;2070658;28;20144;-84
2023/12/27 04:59:07;;;;;;;34.35;14.77;;;;;;;;;;2074483;28;20103;-84
2023/12/27 05:00:28;;;;;;;25.23;15.48;;;;;;;;;;2078407;28;20038;-84
2023/12/27 05:01:50;;;;;;;33.20;14.57;;;;;;;;;;2080773;28;20037;-83
2023/12/27 05:03:11;;;;;;;26.67;14.35;;;;;;;;;;2071719;28;20559;-84
2023/12/27 05:04:31;;;;;;;32.63;14.70;;;;;;;;;;2075921;28;20038;-83
2023/12/27 05:05:52;;;;;;;29.58;14.55;;;;;;;;;;2079789;28;20503;-83
2023/12/27 05:07:13;;;;;;;29.65;14.55;;;;;;;;;;2070705;28;20151;-83
2023/12/27 05:08:35;;;;;;;37.97;14.80;;;;;;;;;;2068372;28;20536;-83
2023/12/27 05:09:56;;;;;;;29.40;13.27;;;;;;;;;;2070697;28;20033;-84
2023/12/27 05:11:18;;;;;;;33.15;14.80;;;;;;;;;;2078116;28;20045;-84
2023/12/27 05:12:39;;;;;;;31.42;14.40;;;;;;;;;;2078883;28;20037;-84
2023/12/27 05:14:00;;;;;;;23.85;13.50;;;;;;;;;;2071838;28;20084;-83
2023/12/27 05:15:21;;;;;;;21.65;12.60;;;;;;;;;;2076562;28;20243;-83
2023/12/27 05:16:45;;;;;;;26.40;12.85;;;;;;;;;;2076579;28;20408;-83
2023/12/27 05:18:06;;;;;;;26.58;12.57;;;;;;;;;;2066005;28;20022;-84
2023/12/27 05:19:27;;;;;;;23.98;12.75;;;;;;;;;;2078470;28;20045;-84
2023/12/27 05:20:48;;;;;;;27.33;13.35;;;;;;;;;;2073563;28;20030;-83
2023/12/27 05:22:09;;;;;;;24.42;12.23;;;;;;;;;;2071658;28;20037;-83
2023/12/27 05:23:30;;;;;;;20.63;12.77;;;;;;;;;;2077554;28;20120;-83
2023/12/27 05:24:50;;;;;;;21.55;12.57;;;;;;;;;;2081210;28;20499;-83
2023/12/27 05:26:11;;;;;;;32.85;13.90;;;;;;;;;;2081960;28;20048;-83
2023/12/27 05:27:32;;;;;;;24.98;11.82;;;;;;;;;;2072989;28;20041;-82
2023/12/27 05:28:53;;;;;;;28.88;12.63;;;;;;;;;;2077274;28;20076;-83
2023/12/27 05:30:14;;;;;;;21.00;11.98;;;;;;;;;;2075010;28;20449;-83
2023/12/27 05:31:35;;;;;;;22.42;12.18;;;;;;;;;;2071696;28;20025;-83
2023/12/27 05:32:56;;;;;;;29.58;11.73;;;;;;;;;;2063421;28;20050;-83
2023/12/27 05:34:17;;;;;;;23.85;11.68;;;;;;;;;;2070984;28;20026;-83
2023/12/27 05:35:38;;;;;;;25.00;12.32;;;;;;;;;;2072770;28;20378;-82
2023/12/27 05:36:59;;;;;;;20.20;11.98;;;;;;;;;;2078873;28;20481;-82
2023/12/27 05:38:19;;;;;;;21.17;12.30;;;;;;;;;;2083996;28;20041;-82
2023/12/27 05:39:42;;;;;;;24.45;11.95;;;;;;;;;;2075767;28;20384;-83
2023/12/27 05:41:03;;;;;;;22.92;12.70;;;;;;;;;;2075474;28;20029;-82
2023/12/27 05:42:24;;;;;;;18.48;12.18;;;;;;;;;;2080640;28;20037;-81
2023/12/27 05:43:45;;;;;;;23.00;11.88;;;;;;;;;;2072320;28;20026;-82
2023/12/27 05:45:06;;;;;;;33.42;14.35;;;;;;;;;;2066538;28;20034;-81
2023/12/27 05:46:27;;;;;;;28.17;12.65;;;;;;;;;;2073812;28;20076;-82
2023/12/27 05:47:48;;;;;;;23.60;12.70;;;;;;;;;;2070524;28;20037;-83
2023/12/27 05:49:09;;;;;;;20.65;11.05;;;;;;;;;;2076267;28;20038;-82
2023/12/27 05:50:30;;;;;;;20.73;12.15;;;;;;;;;;2078884;28;20029;-82
2023/12/27 05:51:51;;;;;;;27.63;13.07;;;;;;;;;;2078767;28;20078;-82
2023/12/27 05:53:12;;;;;;;29.95;13.00;;;;;;;;;;2071038;28;20929;-82
2023/12/27 05:54:33;;;;;;;22.15;11.10;;;;;;;;;;2076174;28;20041;-82
2023/12/27 05:55:54;;;;;;;28.67;12.85;;;;;;;;;;2077176;28;20107;-82
2023/12/27 05:57:15;;;;;;;25.95;13.32;;;;;;;;;;2070894;28;20476;-82
2023/12/27 05:58:36;;;;;;;31.50;13.50;;;;;;;;;;2073116;28;20037;-82
2023/12/27 05:59:57;;;;;;;28.17;12.80;;;;;;;;;;2070147;28;20092;-82
2023/12/27 06:01:18;;;;;;;29.73;13.18;;;;;;;;;;2076281;28;20867;-82
2023/12/27 06:02:40;;;;;;;32.40;12.87;;;;;;;;;;2069693;28;20076;-82
2023/12/27 06:04:04;;;;;;;20.48;12.25;;;;;;;;;;2075514;28;20439;-81
2023/12/27 06:05:25;;;;;;;40.05;14.68;;;;;;;;;;2079165;28;20045;-81
2023/12/27 06:06:46;;;;;;;26.52;11.57;;;;;;;;;;2072166;28;20049;-81
2023/12/27 06:08:07;;;;;;;27.30;12.57;;;;;;;;;;2074440;28;20029;-82
2023/12/27 06:09:31;;;;;;;33.55;13.02;;;;;;;;;;2077182;28;20579;-81
2023/12/27 06:10:52;;;;;;;22.50;11.10;;;;;;;;;;2068990;28;20405;-81
2023/12/27 06:12:12;;;;;;;26.27;12.30;;;;;;;;;;2077012;28;20032;-81
2023/12/27 06:13:33;;;;;;;27.30;13.00;;;;;;;;;;2069978;28;20371;-81
2023/12/27 06:14:54;;;;;;;23.02;11.70;;;;;;;;;;2077077;28;20064;-81
2023/12/27 06:16:15;;;;;;;32.40;12.32;;;;;;;;;;2071465;28;20033;-81
2023/12/27 06:17:36;;;;;;;27.67;12.10;;;;;;;;;;2069879;28;20037;-81
2023/12/27 06:18:59;;;;;;;22.42;12.90;;;;;;;;;;2076015;28;20041;-82
2023/12/27 06:20:20;;;;;;;31.15;12.98;;;;;;;;;;2076880;28;20037;-81
2023/12/27 06:21:41;;;;;;;34.05;13.77;;;;;;;;;;2071200;28;20026;-81
2023/12/27 06:23:02;;;;;;;29.70;12.45;;;;;;;;;;2076437;28;20404;-81
2023/12/27 06:24:24;;;;;;;28.70;13.77;;;;;;;;;;2074868;28;20030;-81
2023/12/27 06:25:45;;;;;;;24.35;12.63;;;;;;;;;;2079166;28;20037;-81
2023/12/27 06:27:06;;;;;;;31.60;13.25;;;;;;;;;;2078374;28;20045;-81
2023/12/27 06:28:28;;;;;;;30.25;11.75;;;;;;;;;;2069260;28;20042;-81
2023/12/27 06:29:48;;;;;;;21.85;11.38;;;;;;;;;;2077025;28;20127;-81
2023/12/27 06:31:10;;;;;;;20.77;12.75;;;;;;;;;;2078828;28;20509;-81
2023/12/27 06:32:30;;;;;;;29.45;12.13;;;;;;;;;;2078122;28;20029;-81
2023/12/27 06:33:51;;;;;;;31.83;13.32;;;;;;;;;;2069689;28;20025;-81
2023/12/27 06:35:12;;;;;;;31.77;12.88;;;;;;;;;;2075512;28;20033;-81
2023/12/27 06:36:33;;;;;;;20.23;11.90;;;;;;;;;;2070368;28;20092;-81
2023/12/27 06:37:54;;;;;;;27.95;13.23;;;;;;;;;;2077035;28;20030;-81
2023/12/27 06:39:15;;;;;;;22.35;11.27;;;;;;;;;;2065854;28;20117;-81
2023/12/27 06:40:36;;;;;;;24.20;12.32;;;;;;;;;;2069526;28;20073;-81
2023/12/27 06:41:57;;;;;;;28.30;12.73;;;;;;;;;;2073212;28;20547;-80
2023/12/27 06:43:19;;;;;;;26.27;12.95;;;;;;;;;;2073062;28;20473;-80
2023/12/27 06:44:40;;;;;;;25.42;12.48;;;;;;;;;;2081174;28;20026;-81
2023/12/27 06:46:01;;;;;;;31.02;14.05;;;;;;;;;;2068717;28;20050;-80
2023/12/27 06:47:22;;;;;;;27.90;13.70;;;;;;;;;;2074748;28;20080;-80
2023/12/27 06:48:43;;;;;;;29.70;13.70;;;;;;;;;;2069493;28;20059;-80
2023/12/27 06:50:04;;;;;;;29.10;13.38;;;;;;;;;;2075187;28;20025;-81
2023/12/27 06:51:25;;;;;;;32.55;14.38;;;;;;;;;;2077670;28;20045;-81
2023/12/27 06:52:46;;;;;;;28.40;13.38;;;;;;;;;;2077409;28;20052;-81
2023/12/27 06:54:07;;;;;;;31.88;13.18;;;;;;;;;;2076965;28;20037;-81
2023/12/27 06:55:28;;;;;;;35.28;14.23;;;;;;;;;;2068213;28;20084;-81
2023/12/27 06:56:48;;;;;;;31.00;13.30;;;;;;;;;;2076136;28;20393;-81
2023/12/27 06:58:09;;;;;;;40.38;15.07;;;;;;;;;;2075398;28;20033;-80
2023/12/27 06:59:30;;;;;;;32.97;13.55;;;;;;;;;;2070640;28;20110;-80
2023/12/27 07:00:51;;;;;;;32.60;14.48;;;;;;;;;;2078325;28;20033;-80
2023/12/27 07:02:13;;;;;;;40.83;14.20;;;;;;;;;;2077412;28;20028;-81
2023/12/27 07:03:33;;;;;;;29.20;13.17;;;;;;;;;;2076018;28;20026;-80
2023/12/27 07:04:54;;;;;;;35.10;15.30;;;;;;;;;;2077815;28;20443;-81
2023/12/27 07:06:15;;;;;;;30.48;13.73;;;;;;;;;;2069356;28;20585;-81
2023/12/27 07:07:36;;;;;;;34.33;14.00;;;;;;;;;;2074707;28;20088;-81
2023/12/27 07:08:57;;;;;;;25.25;13.70;;;;;;;;;;2070936;28;20033;-80
2023/12/27 07:10:18;;;;;;;35.33;13.70;;;;;;;;;;2079794;28;20022;-81
2023/12/27 07:11:39;;;;;;;22.27;12.05;;;;;;;;;;2082925;28;20384;-80
2023/12/27 07:13:00;;;;;;;29.80;11.95;;;;;;;;;;2083635;28;20037;-81
2023/12/27 07:14:21;;;;;;;29.00;14.20;;;;;;;;;;2066188;28;20034;-80
2023/12/27 07:15:42;;;;;;;35.85;15.02;;;;;;;;;;2074353;28;20041;-81
2023/12/27 07:17:04;;;;;;;35.28;14.25;;;;;;;;;;2085808;28;20037;-80
2023/12/27 07:18:25;;;;;;;30.50;14.48;;;;;;;;;;2073524;28;20084;-80
2023/12/27 07:19:46;;;;;;;31.88;13.65;;;;;;;;;;2067691;28;20037;-80
2023/12/27 07:21:08;;;;;;;26.52;14.07;;;;;;;;;;2073044;28;20037;-81
2023/12/27 07:22:29;;;;;;;31.50;14.48;;;;;;;;;;2076160;28;20067;-81
2023/12/27 07:23:49;;;;;;;21.58;13.98;;;;;;;;;;2071372;28;20042;-80
2023/12/27 07:25:11;;;;;;;33.53;14.82;;;;;;;;;;2072371;28;20389;-80
2023/12/27 07:26:31;;;;;;;30.63;14.45;;;;;;;;;;2079110;28;20045;-81
2023/12/27 07:27:53;;;;;;;27.15;13.38;;;;;;;;;;2069975;28;20078;-80
2023/12/27 07:29:14;;;;;;;28.25;14.23;;;;;;;;;;2075293;28;20088;-80
2023/12/27 07:30:35;;;;;;;27.63;13.18;;;;;;;;;;2068650;28;20030;-81
2023/12/27 07:31:56;;;;;;;33.55;13.30;;;;;;;;;;2073691;28;20657;-80
2023/12/27 07:33:17;;;;;;;33.13;15.32;;;;;;;;;;2076005;28;20045;-81
2023/12/27 07:34:38;;;;;;;30.25;13.52;;;;;;;;;;2069986;28;20030;-80
2023/12/27 07:35:59;;;;;;;30.80;14.13;;;;;;;;;;2076055;28;20401;-80
2023/12/27 07:37:20;;;;;;;28.95;14.70;;;;;;;;;;2070748;28;20034;-81
2023/12/27 07:38:41;;;;;;;31.75;15.88;;;;;;;;;;2073083;28;20038;-81
2023/12/27 07:40:03;;;;;;;29.48;13.45;;;;;;;;;;2080340;28;20037;-82
2023/12/27 07:41:23;;;;;;;25.80;15.43;;;;;;;;;;2080865;28;20136;-81
2023/12/27 07:42:44;;;;;;;29.95;16.38;;;;;;;;;;2070758;28;20033;-82
2023/12/27 07:44:05;;;;;;;33.00;15.60;;;;;;;;;;2077039;28;20148;-81
2023/12/27 07:45:26;;;;;;;24.60;14.52;;;;;;;;;;2070640;28;20586;-81
2023/12/27 07:46:47;;;;;;;24.45;14.48;;;;;;;;;;2067372;28;20130;-81
2023/12/27 07:48:08;;;;;;;33.83;16.83;;;;;;;;;;2070404;28;20088;-81
2023/12/27 07:49:29;;;;;;;31.88;16.40;;;;;;;;;;2086147;28;20071;-80
2023/12/27 07:50:50;;;;;;;31.65;15.80;;;;;;;;;;2070282;28;20421;-81